createdAt,value
2019-05-09T12:49:00.379Z,2.90
2019-05-09T12:51:30.746Z,2.53
2019-05-09T12:54:01.197Z,2.87
2019-05-09T12:56:31.686Z,2.80
2019-05-09T12:59:02.410Z,2.90
2019-05-09T13:01:33.684Z,2.30
2019-05-09T13:04:04.202Z,2.10
2019-05-09T13:06:34.726Z,2.27
2019-05-09T13:09:08.316Z,1.55
2019-05-09T13:11:39.268Z,1.52
2019-05-09T13:14:10.355Z,1.40
2019-05-09T13:16:59.975Z,1.87
2019-05-09T13:19:38.190Z,1.30
2019-05-09T13:22:08.989Z,1.10
2019-05-09T13:24:39.551Z,1.23
2019-05-09T13:27:10.063Z,1.37
2019-05-09T13:29:40.562Z,1.37
2019-05-09T13:32:11.079Z,1.12
2019-05-09T13:34:41.643Z,1.10
2019-05-09T13:37:13.198Z,1.03
2019-05-09T13:39:43.699Z,1.00
2019-05-09T13:42:14.334Z,1.30
2019-05-09T13:44:47.432Z,1.07
2019-05-09T13:47:17.999Z,1.27
2019-05-09T13:49:48.758Z,0.93
2019-05-09T13:52:19.465Z,1.80
2019-05-09T13:54:50.004Z,1.10
2019-05-09T13:57:20.504Z,1.20
2019-05-09T13:59:51.092Z,1.20
2019-05-09T14:02:21.736Z,1.20
2019-05-09T14:04:52.215Z,1.20
2019-05-09T14:07:22.722Z,1.20
2019-05-09T14:09:53.426Z,1.25
2019-05-09T14:12:24.236Z,1.27
2019-05-09T14:14:54.934Z,1.30
2019-05-09T14:17:44.907Z,1.20
2019-05-09T14:19:57.960Z,1.20
2019-05-09T14:22:28.703Z,1.20
2019-05-09T14:24:59.231Z,1.00
2019-05-09T14:27:29.808Z,0.83
2019-05-09T14:30:00.448Z,1.10
2019-05-09T14:32:35.004Z,1.17
2019-05-09T14:35:03.635Z,0.90
2019-05-09T14:37:34.181Z,1.00
2019-05-09T14:40:05.947Z,0.80
2019-05-09T14:42:39.103Z,0.80
2019-05-09T14:45:09.490Z,0.63
2019-05-09T14:47:42.569Z,1.00
2019-05-09T14:52:50.326Z,0.70
2019-05-09T14:55:21.317Z,1.00
2019-05-09T15:05:21.912Z,0.87
2019-05-09T15:07:53.889Z,1.10
2019-05-09T15:10:24.991Z,1.05
2019-05-09T15:12:58.369Z,1.30
2019-05-09T15:15:32.316Z,1.10
2019-05-09T15:18:00.621Z,0.97
2019-05-09T15:20:31.473Z,1.30
2019-05-09T15:23:02.102Z,1.00
2019-05-09T15:25:32.703Z,1.40
2019-05-09T15:28:03.346Z,1.30
2019-05-09T15:30:34.013Z,0.90
2019-05-09T15:33:04.630Z,1.30
2019-05-09T15:35:35.397Z,1.00
2019-05-09T15:38:08.378Z,1.30
2019-05-09T15:40:38.773Z,1.07
2019-05-09T15:43:09.423Z,0.90
2019-05-09T16:08:18.975Z,1.30
2019-05-09T16:10:49.558Z,1.57
2019-05-09T16:13:20.153Z,1.27
2019-05-09T16:15:50.827Z,1.20
2019-05-09T16:18:21.311Z,0.90
2019-05-09T16:21:24.695Z,0.93
2019-05-09T16:24:27.977Z,1.07
2019-05-09T16:27:00.595Z,0.83
2019-05-09T16:35:18.951Z,1.00
2019-05-09T16:38:01.707Z,0.93
2019-05-09T16:40:22.565Z,0.95
2019-05-09T16:42:53.276Z,1.20
2019-05-09T16:45:23.929Z,1.50
2019-05-09T16:47:54.519Z,0.90
2019-05-09T16:50:25.087Z,1.02
2019-05-09T16:52:58.455Z,1.00
2019-05-09T16:55:33.412Z,1.05
2019-05-09T16:58:04.729Z,1.10
2019-05-09T17:00:47.984Z,0.80
2019-05-09T17:03:18.692Z,1.10
2019-05-09T17:05:49.605Z,1.40
2019-05-09T17:08:20.245Z,1.30
2019-05-09T17:10:50.870Z,1.20
2019-05-09T17:13:21.609Z,1.10
2019-05-09T17:15:52.293Z,1.32
2019-05-09T17:18:22.867Z,1.15
2019-05-09T17:21:15.134Z,1.10
2019-05-09T17:23:33.845Z,1.40
2019-05-09T17:26:04.514Z,1.20
2019-05-09T17:28:37.446Z,1.30
2019-05-09T17:31:08.645Z,1.20
2019-05-09T17:33:39.411Z,1.20
2019-05-09T17:36:10.194Z,1.50
2019-05-09T17:38:40.811Z,1.40
2019-05-09T17:41:11.423Z,1.40
2019-05-09T17:43:42.122Z,1.40
2019-05-09T17:46:12.740Z,1.10
2019-05-09T17:48:43.485Z,1.30
2019-05-09T17:51:25.932Z,1.10
2019-05-09T17:53:51.927Z,1.00
2019-05-09T17:56:20.704Z,1.10
2019-05-09T17:58:51.198Z,1.10
2019-05-09T18:01:21.809Z,1.00
2019-05-09T18:03:52.474Z,1.30
2019-05-09T18:06:23.208Z,1.37
2019-05-09T18:08:53.801Z,1.40
2019-05-09T18:11:24.468Z,1.32
2019-05-09T18:13:55.184Z,1.00
2019-05-09T18:16:28.527Z,1.27
2019-05-09T18:19:00.476Z,1.03
2019-05-09T18:21:31.060Z,1.30
2019-05-09T18:24:02.015Z,1.20
2019-05-09T18:26:32.804Z,1.30
2019-05-09T18:29:03.367Z,1.42
2019-05-09T18:31:54.961Z,1.40
2019-05-09T18:34:25.627Z,1.10
2019-05-09T18:36:58.620Z,1.40
2019-05-09T18:39:28.900Z,1.10
2019-05-09T18:41:59.469Z,1.40
2019-05-09T18:44:31.151Z,1.12
2019-05-09T18:47:01.783Z,1.30
2019-05-09T18:49:32.394Z,1.07
2019-05-09T18:54:52.633Z,1.27
2019-05-09T18:57:23.327Z,1.30
2019-05-09T18:59:53.878Z,1.62
2019-05-09T19:02:24.498Z,1.50
2019-05-09T19:04:55.127Z,1.10
2019-05-09T19:07:25.688Z,1.40
2019-05-09T19:09:56.450Z,1.30
2019-05-09T19:12:27.015Z,1.30
2019-05-09T19:14:57.935Z,1.60
2019-05-09T19:17:50.683Z,1.50
2019-05-09T19:20:36.639Z,1.57
2019-05-09T19:23:07.330Z,1.57
2019-05-09T19:25:38.235Z,1.65
2019-05-09T19:28:08.842Z,1.60
2019-05-09T19:30:40.367Z,1.30
2019-05-09T19:33:11.113Z,1.55
2019-05-09T19:35:41.991Z,1.40
2019-05-09T19:38:12.959Z,1.20
2019-05-09T19:40:43.640Z,1.37
2019-05-09T19:43:14.580Z,1.67
2019-05-09T19:45:45.300Z,1.20
2019-05-09T19:48:16.031Z,1.35
2019-05-09T19:50:46.658Z,1.40
2019-05-09T19:53:17.649Z,1.50
2019-05-09T19:55:48.965Z,2.30
2019-05-09T19:58:19.578Z,1.80
2019-05-09T20:00:50.388Z,1.80
2019-05-09T20:03:21.251Z,1.50
2019-05-09T20:05:51.978Z,2.00
2019-05-09T20:08:23.373Z,1.70
2019-05-09T20:11:11.627Z,1.63
2019-05-09T20:14:00.003Z,1.53
2019-05-09T20:16:32.423Z,1.70
2019-05-09T20:19:03.174Z,2.27
2019-05-09T20:21:33.814Z,1.60
2019-05-09T20:24:05.386Z,1.80
2019-05-09T20:26:36.122Z,1.70
2019-05-09T20:29:06.751Z,1.80
2019-05-09T20:31:37.307Z,1.60
2019-05-09T20:34:07.848Z,1.70
2019-05-09T20:36:39.015Z,1.62
2019-05-09T20:39:09.810Z,1.82
2019-05-09T20:41:40.516Z,1.67
2019-05-09T20:44:11.324Z,1.67
2019-05-09T20:46:44.114Z,2.00
2019-05-09T20:49:14.864Z,1.63
2019-05-09T20:51:45.559Z,2.00
2019-05-09T20:54:21.162Z,1.80
2019-05-09T20:56:49.615Z,2.00
2019-05-09T20:59:20.287Z,2.70
2019-05-09T21:01:51.153Z,2.50
2019-05-09T21:04:22.205Z,2.12
2019-05-09T21:06:52.848Z,2.40
2019-05-09T21:09:23.628Z,2.58
2019-05-09T21:11:54.235Z,2.60
2019-05-09T21:14:24.931Z,2.60
2019-05-09T21:16:55.773Z,2.80
2019-05-09T21:19:26.482Z,3.58
2019-05-09T21:21:57.179Z,3.00
2019-05-09T21:24:27.882Z,2.70
2019-05-09T21:26:58.512Z,2.90
2019-05-09T21:29:29.195Z,3.15
2019-05-09T21:31:59.923Z,2.85
2019-05-09T21:34:30.575Z,2.20
2019-05-09T21:37:01.058Z,2.60
2019-05-09T21:39:31.542Z,2.90
2019-05-09T21:42:02.119Z,2.80
2019-05-09T21:44:32.563Z,2.80
2019-05-09T21:47:03.060Z,3.10
2019-05-09T21:49:33.528Z,2.70
2019-05-09T21:52:04.000Z,2.45
2019-05-09T21:54:34.505Z,2.40
2019-05-09T21:57:04.990Z,2.27
2019-05-09T21:59:35.454Z,2.10
2019-05-09T22:02:06.351Z,2.42
2019-05-09T22:04:36.827Z,2.80
2019-05-09T22:07:07.328Z,2.37
2019-05-09T22:09:37.822Z,2.40
2019-05-09T22:12:08.613Z,2.47
2019-05-09T22:14:39.116Z,2.27
2019-05-09T22:17:16.836Z,2.10
2019-05-09T22:19:47.324Z,2.45
2019-05-09T22:22:17.778Z,2.55
2019-05-09T22:24:48.279Z,2.62
2019-05-09T22:27:18.754Z,1.90
2019-05-09T22:29:49.227Z,2.10
2019-05-09T22:32:22.079Z,2.30
2019-05-09T22:34:52.037Z,2.70
2019-05-09T22:37:22.623Z,2.42
2019-05-09T22:39:53.101Z,2.70
2019-05-09T22:42:23.619Z,2.80
2019-05-09T22:44:54.093Z,2.83
2019-05-09T22:47:24.613Z,3.00
2019-05-09T22:49:55.098Z,3.15
2019-05-09T22:52:25.563Z,2.80
2019-05-09T22:54:56.096Z,3.00
2019-05-09T22:57:26.602Z,3.05
2019-05-09T22:59:57.107Z,2.90
2019-05-09T23:02:27.581Z,3.15
2019-05-09T23:04:58.052Z,3.05
2019-05-09T23:07:28.527Z,3.08
2019-05-09T23:09:59.017Z,3.35
2019-05-09T23:12:29.498Z,3.10
2019-05-09T23:14:59.972Z,3.20
2019-05-09T23:17:30.887Z,2.90
2019-05-09T23:20:03.021Z,3.60
2019-05-09T23:22:33.563Z,3.72
2019-05-09T23:25:04.165Z,3.90
2019-05-09T23:27:34.630Z,4.62
2019-05-09T23:30:06.994Z,4.33
2019-05-09T23:32:41.557Z,4.78
2019-05-09T23:35:12.201Z,4.87
2019-05-09T23:37:42.692Z,4.97
2019-05-09T23:40:13.452Z,4.20
2019-05-09T23:42:43.936Z,5.42
2019-05-09T23:45:14.434Z,4.30
2019-05-09T23:47:44.916Z,5.40
2019-05-09T23:50:15.395Z,4.25
2019-05-09T23:52:45.808Z,4.20
2019-05-09T23:55:35.608Z,3.75
2019-05-09T23:58:23.976Z,4.17
